createdAt,value
2018-11-22T00:01:16.137Z,1.47
2018-11-22T00:03:30.476Z,1.52
2018-11-22T00:05:26.618Z,1.49
2018-11-22T00:09:22.168Z,1.42
2018-11-22T00:11:36.152Z,1.42
2018-11-22T00:13:23.549Z,1.43
2018-11-22T00:15:20.780Z,1.40
2018-11-22T00:16:58.057Z,1.46
2018-11-22T00:18:34.687Z,1.47
2018-11-22T00:20:47.949Z,1.49
2018-11-22T00:32:33.983Z,1.42
2018-11-22T00:34:22.024Z,1.44
2018-11-22T00:35:59.251Z,1.47
2018-11-22T00:37:35.486Z,1.47
2018-11-22T00:39:16.943Z,1.48
2018-11-22T00:41:12.734Z,1.48
2018-11-22T00:43:08.222Z,1.48
2018-11-22T00:56:02.891Z,1.38
2018-11-22T00:58:19.019Z,1.28
2018-11-22T01:02:30.107Z,1.29
2018-11-22T01:04:43.579Z,1.25
2018-11-22T01:08:49.411Z,1.25
2018-11-22T01:10:37.651Z,1.20
2018-11-22T01:12:24.935Z,1.20
2018-11-22T01:18:58.579Z,1.21
2018-11-22T01:24:42.760Z,1.16
2018-11-22T01:26:19.355Z,1.15
2018-11-22T01:28:29.292Z,1.17
2018-11-22T01:31:55.879Z,1.17
2018-11-22T01:40:10.972Z,1.13
2018-11-22T01:41:58.945Z,1.14
2018-11-22T01:43:55.593Z,1.17
2018-11-22T01:51:45.201Z,1.15
2018-11-22T01:53:41.434Z,1.15
2018-11-22T01:55:54.824Z,1.15
2018-11-22T02:00:23.645Z,1.07
2018-11-22T02:02:17.977Z,1.06
2018-11-22T02:04:31.325Z,1.04
2018-11-22T02:05:56.169Z,0.98
2018-11-22T02:07:32.979Z,1.02
2018-11-22T02:09:11.952Z,1.00
2018-11-22T02:11:25.170Z,1.03
2018-11-22T02:13:21.012Z,1.00
2018-11-22T02:14:57.552Z,0.98
2018-11-22T02:19:09.317Z,0.98
2018-11-22T02:22:58.356Z,0.94
2018-11-22T02:24:49.094Z,0.94
2018-11-22T02:26:36.154Z,0.95
2018-11-22T02:28:31.990Z,0.97
2018-11-22T02:30:28.059Z,0.95
2018-11-22T02:34:42.743Z,0.97
2018-11-22T02:36:38.502Z,1.03
2018-11-22T02:38:33.915Z,0.99
2018-11-22T02:40:11.566Z,0.97
2018-11-22T02:42:16.480Z,0.94
2018-11-22T02:44:13.025Z,0.93
2018-11-22T02:46:08.463Z,0.98
2018-11-22T02:48:04.106Z,0.94
2018-11-22T02:49:40.326Z,0.94
2018-11-22T02:51:35.533Z,0.93
2018-11-22T02:53:31.148Z,0.91
2018-11-22T02:57:19.622Z,0.87
2018-11-22T03:03:09.407Z,0.81
2018-11-22T03:04:56.119Z,0.79
2018-11-22T03:06:51.801Z,0.80
2018-11-22T03:08:47.410Z,0.83
2018-11-22T03:10:43.072Z,0.80
2018-11-22T03:12:38.729Z,0.75
2018-11-22T03:14:34.485Z,0.77
2018-11-22T03:16:10.672Z,0.74
2018-11-22T03:18:05.555Z,0.73
2018-11-22T03:21:53.161Z,0.69
2018-11-22T03:23:48.914Z,0.70
2018-11-22T03:27:50.829Z,0.70
2018-11-22T03:29:37.888Z,0.70
2018-11-22T03:31:24.774Z,0.67
2018-11-22T03:33:11.959Z,0.68
2018-11-22T03:39:03.161Z,0.73
2018-11-22T03:42:51.862Z,0.71
2018-11-22T03:44:40.047Z,0.69
2018-11-22T03:48:31.785Z,0.72
2018-11-22T03:52:34.953Z,0.71
2018-11-22T03:54:30.852Z,0.71
2018-11-22T03:56:08.151Z,0.71
2018-11-22T03:59:57.096Z,0.71
2018-11-22T04:01:52.457Z,0.70
2018-11-22T04:03:48.168Z,0.71
2018-11-22T04:05:43.979Z,0.71
2018-11-22T04:07:39.930Z,0.73
2018-11-22T04:09:35.572Z,0.73
2018-11-22T04:11:12.891Z,0.71
2018-11-22T04:13:09.746Z,0.71
2018-11-22T04:14:45.808Z,0.70
2018-11-22T04:18:41.593Z,0.71
2018-11-22T04:20:37.732Z,0.70
2018-11-22T04:24:27.147Z,0.74
2018-11-22T04:26:03.358Z,0.76
2018-11-22T04:27:39.516Z,0.75
2018-11-22T04:29:53.406Z,0.76
2018-11-22T04:31:49.122Z,0.76
2018-11-22T04:33:35.782Z,0.77
2018-11-22T04:35:23.670Z,0.80
2018-11-22T04:37:19.408Z,0.79
2018-11-22T04:39:14.970Z,0.79
2018-11-22T04:41:02.037Z,0.79
2018-11-22T04:42:48.879Z,0.81
2018-11-22T04:44:44.544Z,0.80
2018-11-22T04:46:30.814Z,0.78
2018-11-22T04:48:07.430Z,0.76
2018-11-22T04:50:08.375Z,0.75
2018-11-22T04:51:50.707Z,0.76
2018-11-22T04:56:20.152Z,0.76
2018-11-22T04:58:07.693Z,0.79
2018-11-22T05:00:04.504Z,0.75
2018-11-22T05:02:00.493Z,0.72
2018-11-22T05:05:57.116Z,0.70
2018-11-22T05:07:33.192Z,0.70
2018-11-22T05:09:30.058Z,0.69
2018-11-22T05:11:25.879Z,0.70
2018-11-22T05:13:02.026Z,0.70
2018-11-22T05:14:57.324Z,0.71
2018-11-22T05:16:53.629Z,0.73
2018-11-22T05:18:40.948Z,0.71
2018-11-22T05:20:28.220Z,0.73
2018-11-22T05:22:15.274Z,0.71
2018-11-22T05:24:02.011Z,0.73
2018-11-22T05:25:48.792Z,0.72
2018-11-22T05:27:44.187Z,0.70
2018-11-22T05:29:40.149Z,0.70
2018-11-22T05:39:41.914Z,0.75
2018-11-22T05:43:38.992Z,0.70
2018-11-22T05:45:27.511Z,0.71
2018-11-22T05:47:03.881Z,0.70
2018-11-22T05:48:39.999Z,0.74
2018-11-22T05:50:18.531Z,0.75
2018-11-22T05:51:54.628Z,0.74
2018-11-22T05:53:30.707Z,0.77
2018-11-22T05:55:07.276Z,0.79
2018-11-22T05:56:43.680Z,0.78
2018-11-22T05:58:19.748Z,0.82
2018-11-22T05:59:55.923Z,0.80
2018-11-22T06:01:51.723Z,0.77
2018-11-22T06:03:47.513Z,0.81
2018-11-22T06:09:59.783Z,0.84
2018-11-22T06:11:55.727Z,0.84
2018-11-22T06:13:32.149Z,0.84
2018-11-22T06:15:28.586Z,0.85
2018-11-22T06:17:16.493Z,0.86
2018-11-22T06:19:23.154Z,0.84
2018-11-22T06:21:29.192Z,0.81
2018-11-22T06:23:17.118Z,0.84
2018-11-22T06:27:12.638Z,0.84
2018-11-22T06:29:08.345Z,0.91
2018-11-22T06:30:44.886Z,0.86
2018-11-22T06:32:31.970Z,0.90
2018-11-22T06:34:21.249Z,0.84
2018-11-22T06:36:08.174Z,0.90
2018-11-22T06:37:55.381Z,0.90
2018-11-22T06:39:31.667Z,0.90
2018-11-22T06:41:26.957Z,0.90
2018-11-22T06:43:21.860Z,0.94
2018-11-22T06:45:21.920Z,0.93
2018-11-22T06:46:58.174Z,0.95
2018-11-22T06:48:34.713Z,0.92
2018-11-22T06:50:11.723Z,0.96
2018-11-22T06:51:50.716Z,0.95
2018-11-22T06:53:25.516Z,0.96
2018-11-22T06:55:04.061Z,0.96
2018-11-22T06:56:39.253Z,1.00
2018-11-22T06:58:18.208Z,0.99
2018-11-22T06:59:55.217Z,1.01
2018-11-22T07:01:33.074Z,1.01
2018-11-22T07:03:11.457Z,1.02
2018-11-22T07:04:52.070Z,1.01
2018-11-22T07:06:31.460Z,1.04
2018-11-22T07:08:09.869Z,1.05
2018-11-22T07:09:46.680Z,1.08
2018-11-22T07:11:25.711Z,1.07
2018-11-22T07:13:02.467Z,1.07
2018-11-22T07:14:38.686Z,1.07
2018-11-22T07:20:21.808Z,1.07
2018-11-22T07:24:03.909Z,1.17
2018-11-22T07:25:40.458Z,1.19
2018-11-22T07:27:19.503Z,1.18
2018-11-22T07:29:34.127Z,1.17
2018-11-22T07:35:09.371Z,1.18
2018-11-22T07:36:46.058Z,1.16
2018-11-22T07:38:41.691Z,1.19
2018-11-22T07:40:30.603Z,1.18
2018-11-22T07:42:26.045Z,1.25
2018-11-22T07:44:02.268Z,1.29
2018-11-22T07:45:57.301Z,1.28
2018-11-22T07:49:33.518Z,1.34
2018-11-22T07:51:24.698Z,1.38
2018-11-22T07:54:57.230Z,1.39
2018-11-22T08:02:39.268Z,1.48
2018-11-22T08:04:34.091Z,1.52
2018-11-22T08:08:10.989Z,1.61
2018-11-22T08:10:06.495Z,1.60
2018-11-22T08:12:02.024Z,1.67
2018-11-22T08:13:38.728Z,1.66
2018-11-22T08:15:38.003Z,1.67
2018-11-22T08:17:14.423Z,1.70
2018-11-22T08:20:52.348Z,1.69
2018-11-22T08:22:29.024Z,1.77
2018-11-22T08:24:05.285Z,1.76
2018-11-22T08:25:41.377Z,1.82
2018-11-22T08:27:17.744Z,1.91
2018-11-22T08:28:53.936Z,1.92
2018-11-22T08:32:43.482Z,1.88
2018-11-22T08:34:19.507Z,1.90
2018-11-22T08:35:55.759Z,1.91
2018-11-22T08:37:31.827Z,1.89
2018-11-22T08:39:12.089Z,1.87
2018-11-22T08:40:48.324Z,1.88
2018-11-22T08:42:26.174Z,1.89
2018-11-22T08:44:04.442Z,1.93
2018-11-22T08:47:51.336Z,2.00
2018-11-22T08:49:47.152Z,1.99
2018-11-22T08:51:44.899Z,2.06
2018-11-22T08:53:40.009Z,2.05
2018-11-22T08:55:16.981Z,2.09
2018-11-22T08:56:54.739Z,2.21
2018-11-22T08:58:30.901Z,2.24
2018-11-22T09:00:18.164Z,2.22
2018-11-22T09:02:13.839Z,2.31
2018-11-22T09:04:03.762Z,2.31
2018-11-22T09:05:40.007Z,2.34
2018-11-22T09:07:37.783Z,2.35
2018-11-22T09:09:32.573Z,2.37
2018-11-22T09:11:08.957Z,2.42
2018-11-22T09:12:45.747Z,2.32
2018-11-22T09:15:13.489Z,2.30
2018-11-22T09:16:49.913Z,2.25
2018-11-22T09:18:45.590Z,2.25
2018-11-22T09:22:23.709Z,2.27
2018-11-22T09:24:24.307Z,2.33
2018-11-22T09:26:15.913Z,2.38
2018-11-22T09:28:15.819Z,2.28
2018-11-22T09:32:09.007Z,2.41
2018-11-22T12:17:08.573Z,3.02
2018-11-22T12:18:42.348Z,2.98
2018-11-22T12:20:17.063Z,3.02
2018-11-22T12:23:35.964Z,2.99
2018-11-22T12:25:12.284Z,2.97
2018-11-22T12:26:46.412Z,2.93
2018-11-22T12:28:20.246Z,2.87
2018-11-22T12:30:56.789Z,2.88
2018-11-22T12:32:35.298Z,2.79
2018-11-22T12:34:25.145Z,2.80
2018-11-22T12:36:06.493Z,2.82
2018-11-22T12:37:44.970Z,2.78
2018-11-22T12:39:20.592Z,2.82
2018-11-22T12:40:54.814Z,2.87
2018-11-22T12:42:30.114Z,2.98
2018-11-22T12:45:50.814Z,3.01
2018-11-22T12:47:24.446Z,3.05
2018-11-22T12:48:58.243Z,3.07
2018-11-22T12:50:32.350Z,3.02
2018-11-22T12:52:06.298Z,3.04
2018-11-22T12:53:40.830Z,3.02
2018-11-22T12:55:14.838Z,3.07
2018-11-22T12:56:49.538Z,3.04
2018-11-22T12:58:27.117Z,2.99
2018-11-22T13:00:08.259Z,3.04
2018-11-22T13:01:42.863Z,3.06
2018-11-22T13:09:20.719Z,3.11
2018-11-22T13:10:56.052Z,3.15
2018-11-22T13:12:30.823Z,3.14
2018-11-22T13:14:06.318Z,3.13
2018-11-22T13:15:40.555Z,3.20
2018-11-22T13:17:14.773Z,3.24
2018-11-22T13:18:50.426Z,3.26
2018-11-22T13:20:24.600Z,3.29
2018-11-22T13:22:00.068Z,3.25
2018-11-22T13:23:34.201Z,3.27
2018-11-22T13:25:09.257Z,3.31
2018-11-22T13:26:43.733Z,3.34
2018-11-22T13:28:18.487Z,3.40
2018-11-22T13:29:52.399Z,3.44
2018-11-22T13:31:26.734Z,3.45
2018-11-22T13:33:02.904Z,3.42
2018-11-22T13:34:37.244Z,3.44
2018-11-22T13:36:11.009Z,3.47
2018-11-22T13:37:46.744Z,3.50
2018-11-22T13:39:21.472Z,3.50
2018-11-22T13:40:56.947Z,3.47
2018-11-22T13:42:32.431Z,3.53
2018-11-22T13:44:06.285Z,3.56
2018-11-22T13:45:40.879Z,3.50
2018-11-22T13:47:18.936Z,3.44
2018-11-22T13:48:53.168Z,3.50
2018-11-22T13:50:32.662Z,3.41
2018-11-22T13:52:06.707Z,3.39
2018-11-22T13:53:40.837Z,3.40
2018-11-22T13:55:16.263Z,3.38
2018-11-22T13:56:51.246Z,3.42
2018-11-22T13:58:25.561Z,3.42
2018-11-22T13:59:59.717Z,3.40
2018-11-22T14:01:34.338Z,3.44
2018-11-22T14:03:08.447Z,3.42
2018-11-22T14:04:42.720Z,3.41
2018-11-22T14:06:23.953Z,3.40
2018-11-22T14:08:02.060Z,3.35
2018-11-22T14:09:36.945Z,3.30
2018-11-22T14:11:13.734Z,3.33
2018-11-22T14:12:51.442Z,3.35
2018-11-22T14:14:39.279Z,3.31
2018-11-22T14:16:15.837Z,3.34
2018-11-22T14:17:52.604Z,3.38
2018-11-22T14:19:26.653Z,3.37
2018-11-22T14:21:00.523Z,3.34
2018-11-22T14:22:35.130Z,3.33
2018-11-22T14:24:11.186Z,3.27
2018-11-22T14:25:49.122Z,3.27
2018-11-22T14:27:20.444Z,3.23
2018-11-22T14:28:54.099Z,3.16
2018-11-22T14:30:31.866Z,3.16
2018-11-22T14:32:08.203Z,3.13
2018-11-22T14:33:42.028Z,3.08
2018-11-22T14:37:55.717Z,2.94
2018-11-22T14:39:30.664Z,2.92
2018-11-22T14:41:04.709Z,2.90
2018-11-22T14:42:39.194Z,2.86
2018-11-22T14:44:13.253Z,2.83
2018-11-22T14:45:48.130Z,2.81
2018-11-22T14:47:22.843Z,2.83
2018-11-22T14:48:56.708Z,2.86
2018-11-22T14:50:38.417Z,2.81
2018-11-22T14:52:12.955Z,2.83
2018-11-22T14:53:46.629Z,2.82
2018-11-22T14:55:20.424Z,2.83
2018-11-22T14:56:55.260Z,2.83
2018-11-22T14:58:29.306Z,2.84
2018-11-22T15:00:04.935Z,2.82
2018-11-22T15:01:39.779Z,2.83
2018-11-22T15:03:13.973Z,2.83
2018-11-22T15:04:49.338Z,2.78
2018-11-22T15:06:23.034Z,2.77
2018-11-22T15:07:58.464Z,2.78
2018-11-22T15:09:32.848Z,2.78
2018-11-22T15:11:06.831Z,2.76
2018-11-22T15:12:44.013Z,2.74
2018-11-22T15:14:18.830Z,2.74
2018-11-22T15:15:53.129Z,2.69
2018-11-22T15:17:26.879Z,2.69
2018-11-22T15:19:03.251Z,2.65
2018-11-22T15:20:36.982Z,2.61
2018-11-22T15:22:11.733Z,2.55
2018-11-22T15:23:45.897Z,2.52
2018-11-22T15:25:22.883Z,2.48
2018-11-22T15:26:57.071Z,2.43
2018-11-22T15:28:31.443Z,2.40
2018-11-22T15:30:09.532Z,2.38
2018-11-22T15:31:44.340Z,2.35
2018-11-22T15:33:18.506Z,2.34
2018-11-22T15:34:53.080Z,2.29
2018-11-22T15:36:27.015Z,2.28
2018-11-22T15:38:01.036Z,2.25
2018-11-22T15:39:34.987Z,2.23
2018-11-22T15:41:09.042Z,2.17
2018-11-22T15:42:42.967Z,2.14
2018-11-22T15:44:16.605Z,2.07
2018-11-22T15:45:50.640Z,2.04
2018-11-22T15:47:25.674Z,2.01
2018-11-22T15:48:59.501Z,1.95
2018-11-22T15:50:33.602Z,1.92
2018-11-22T15:52:07.882Z,1.86
2018-11-22T15:53:42.201Z,1.80
2018-11-22T15:55:20.947Z,1.73
2018-11-22T15:56:52.670Z,1.70
2018-11-22T15:58:27.251Z,1.67
2018-11-22T16:00:01.402Z,1.62
2018-11-22T16:01:36.391Z,1.59
2018-11-22T16:03:10.526Z,1.53
2018-11-22T16:04:44.683Z,1.48
2018-11-22T16:06:18.916Z,1.44
2018-11-22T16:08:00.453Z,1.44
2018-11-22T16:09:35.063Z,1.39
2018-11-22T16:11:14.758Z,1.38
2018-11-22T16:12:44.630Z,1.38
2018-11-22T16:14:18.483Z,1.38
2018-11-22T16:15:54.263Z,1.39
2018-11-22T16:17:28.503Z,1.39
2018-11-22T16:19:05.885Z,1.41
2018-11-22T16:20:39.767Z,1.42
2018-11-22T16:22:15.350Z,1.46
2018-11-22T16:23:50.303Z,1.49
2018-11-22T16:25:26.689Z,1.49
2018-11-22T16:27:01.727Z,1.51
2018-11-22T16:28:36.550Z,1.51
2018-11-22T16:30:15.853Z,1.54
2018-11-22T16:31:51.671Z,1.55
2018-11-22T16:33:26.279Z,1.55
2018-11-22T16:35:00.144Z,1.56
2018-11-22T16:36:34.252Z,1.58
2018-11-22T16:38:08.579Z,1.58
2018-11-22T16:39:42.524Z,1.57
2018-11-22T16:41:17.248Z,1.57
2018-11-22T16:42:52.870Z,1.60
2018-11-22T16:44:27.502Z,1.59
2018-11-22T16:46:01.480Z,1.59
2018-11-22T16:47:35.313Z,1.59
2018-11-22T16:49:09.211Z,1.61
2018-11-22T16:50:44.993Z,1.59
2018-11-22T16:52:26.349Z,1.61
2018-11-22T16:54:00.381Z,1.61
2018-11-22T16:55:35.574Z,1.61
2018-11-22T16:57:10.619Z,1.61
2018-11-22T16:58:45.079Z,1.59
2018-11-22T17:00:26.722Z,1.59
2018-11-22T17:02:00.861Z,1.57
2018-11-22T17:03:35.018Z,1.57
2018-11-22T17:05:08.914Z,1.54
2018-11-22T17:06:45.623Z,1.52
2018-11-22T17:08:21.239Z,1.47
2018-11-22T17:09:55.639Z,1.42
2018-11-22T17:11:30.146Z,1.38
2018-11-22T17:13:05.412Z,1.33
2018-11-22T17:14:39.270Z,1.24
2018-11-22T17:16:14.558Z,1.16
2018-11-22T17:17:49.748Z,1.10
2018-11-22T17:19:23.559Z,1.03
2018-11-22T17:20:58.425Z,0.95
2018-11-22T17:22:32.868Z,0.87
2018-11-22T17:24:08.693Z,0.79
2018-11-22T17:25:42.404Z,0.70
2018-11-22T17:27:16.094Z,0.62
2018-11-22T17:28:50.184Z,0.57
2018-11-22T17:30:26.684Z,0.56
2018-11-22T17:32:00.955Z,0.52
2018-11-22T17:33:34.684Z,0.55
2018-11-22T17:35:10.131Z,0.54
2018-11-22T17:36:44.563Z,0.52
2018-11-22T17:38:19.397Z,0.49
2018-11-22T17:39:53.407Z,0.48
2018-11-22T17:41:28.553Z,0.50
2018-11-22T17:43:02.336Z,0.52
2018-11-22T17:44:36.184Z,0.56
2018-11-22T17:46:10.959Z,0.55
2018-11-22T17:47:45.173Z,0.52
2018-11-22T17:49:19.591Z,0.53
2018-11-22T17:50:55.725Z,0.53
2018-11-22T17:52:31.249Z,0.52
2018-11-22T17:54:05.400Z,0.52
2018-11-22T17:55:39.925Z,0.53
2018-11-22T17:57:16.569Z,0.56
2018-11-22T17:58:50.786Z,0.57
2018-11-22T18:00:26.460Z,0.56
2018-11-22T18:02:02.128Z,0.57
2018-11-22T18:03:36.495Z,0.58
2018-11-22T18:05:11.512Z,0.58
2018-11-22T18:06:46.663Z,0.58
2018-11-22T18:08:24.392Z,0.58
2018-11-22T18:09:59.118Z,0.58
2018-11-22T18:11:35.220Z,0.58
2018-11-22T18:13:10.097Z,0.60
2018-11-22T18:14:45.712Z,0.59
2018-11-22T18:16:20.325Z,0.56
2018-11-22T18:17:57.168Z,0.58
2018-11-22T18:19:33.283Z,0.59
2018-11-22T18:21:07.570Z,0.58
2018-11-22T18:22:42.780Z,0.58
2018-11-22T18:24:20.698Z,0.57
2018-11-22T18:25:54.850Z,0.56
2018-11-22T18:27:34.453Z,0.54
2018-11-22T18:29:10.785Z,0.50
2018-11-22T18:30:47.513Z,0.50
2018-11-22T18:32:38.650Z,0.48
2018-11-22T18:34:21.033Z,0.48
2018-11-22T18:36:03.712Z,0.49
2018-11-22T18:37:51.850Z,0.45
2018-11-22T18:39:28.335Z,0.44
2018-11-22T18:41:05.166Z,0.43
2018-11-22T18:42:49.024Z,0.43
2018-11-22T18:44:23.332Z,0.44
2018-11-22T18:45:57.665Z,0.42
2018-11-22T18:47:33.272Z,0.40
2018-11-22T18:49:10.410Z,0.41
2018-11-22T18:50:53.735Z,0.42
2018-11-22T18:52:36.409Z,0.41
2018-11-22T18:54:24.622Z,0.42
2018-11-22T18:56:02.001Z,0.39
2018-11-22T18:57:35.952Z,0.38
2018-11-22T18:59:10.051Z,0.37
2018-11-22T19:00:45.185Z,0.34
2018-11-22T19:02:19.460Z,0.31
2018-11-22T19:03:53.874Z,0.31
2018-11-22T19:05:29.226Z,0.30
2018-11-22T19:07:02.994Z,0.27
2018-11-22T19:08:37.067Z,0.24
2018-11-22T19:10:13.153Z,0.25
2018-11-22T19:11:47.353Z,0.21
2018-11-22T19:13:22.736Z,0.16
2018-11-22T19:14:58.085Z,0.17
2018-11-22T19:16:33.430Z,0.15
2018-11-22T19:18:11.314Z,0.16
2018-11-22T19:19:45.601Z,0.17
2018-11-22T19:21:19.950Z,0.13
2018-11-22T19:22:56.255Z,0.17
2018-11-22T19:24:29.904Z,0.18
2018-11-22T19:26:05.208Z,0.17
2018-11-22T19:27:41.251Z,0.17
2018-11-22T19:29:24.777Z,0.15
2018-11-22T19:31:22.458Z,0.17
2018-11-22T19:33:01.092Z,0.14
2018-11-22T19:34:46.293Z,0.16
2018-11-22T19:36:21.172Z,0.15
2018-11-22T19:37:55.906Z,0.11
2018-11-22T19:39:32.917Z,0.08
2018-11-22T19:41:07.724Z,0.04
2018-11-22T19:42:41.950Z,0.01
2018-11-22T19:44:15.601Z,-0.03
2018-11-22T19:45:52.429Z,-0.07
2018-11-22T19:47:28.044Z,-0.12
2018-11-22T19:49:02.295Z,-0.13
2018-11-22T19:50:37.811Z,-0.18
2018-11-22T19:52:12.524Z,-0.21
2018-11-22T19:53:46.781Z,-0.23
2018-11-22T19:55:23.056Z,-0.24
2018-11-22T19:56:57.297Z,-0.28
2018-11-22T19:58:31.807Z,-0.33
2018-11-22T20:00:10.591Z,-0.35
2018-11-22T20:01:46.964Z,-0.33
2018-11-22T20:03:22.815Z,-0.36
2018-11-22T20:04:57.364Z,-0.38
2018-11-22T20:06:32.999Z,-0.40
2018-11-22T20:08:08.174Z,-0.44
2018-11-22T20:09:42.753Z,-0.50
2018-11-22T20:11:16.419Z,-0.49
2018-11-22T20:12:50.443Z,-0.48
2018-11-22T20:14:26.507Z,-0.51
2018-11-22T20:16:01.129Z,-0.56
2018-11-22T20:17:35.759Z,-0.58
2018-11-22T20:19:09.774Z,-0.59
2018-11-22T20:20:49.508Z,-0.56
2018-11-22T20:22:20.899Z,-0.61
2018-11-22T20:23:54.643Z,-0.62
2018-11-22T20:25:29.290Z,-0.63
2018-11-22T20:27:05.232Z,-0.68
2018-11-22T20:28:40.540Z,-0.70
2018-11-22T20:30:21.747Z,-0.68
2018-11-22T20:31:58.339Z,-0.66
2018-11-22T20:33:34.297Z,-0.69
2018-11-22T20:35:09.942Z,-0.68
2018-11-22T20:36:44.934Z,-0.66
2018-11-22T20:38:21.749Z,-0.62
2018-11-22T20:40:00.345Z,-0.62
2018-11-22T20:41:37.530Z,-0.61
2018-11-22T20:43:18.681Z,-0.59
2018-11-22T20:44:56.742Z,-0.60
2018-11-22T20:46:38.775Z,-0.63
2018-11-22T20:48:14.575Z,-0.65
2018-11-22T20:49:50.675Z,-0.65
2018-11-22T20:51:30.876Z,-0.66
2018-11-22T20:53:07.253Z,-0.66
2018-11-22T20:54:45.455Z,-0.70
2018-11-22T20:56:23.433Z,-0.69
2018-11-22T20:58:02.752Z,-0.72
2018-11-22T20:59:42.585Z,-0.71
2018-11-22T21:01:22.284Z,-0.72
2018-11-22T21:02:59.389Z,-0.67
2018-11-22T21:04:34.989Z,-0.68
2018-11-22T21:06:20.831Z,-0.66
2018-11-22T21:08:02.893Z,-0.57
2018-11-22T21:09:40.641Z,-0.61
2018-11-22T21:11:20.679Z,-0.64
2018-11-22T21:13:05.711Z,-0.65
2018-11-22T21:14:48.630Z,-0.64
2018-11-22T21:16:33.518Z,-0.63
2018-11-22T21:18:11.273Z,-0.62
2018-11-22T21:19:52.736Z,-0.63
2018-11-22T21:21:28.069Z,-0.61
2018-11-22T21:23:08.889Z,-0.61
2018-11-22T21:24:47.771Z,-0.63
2018-11-22T21:28:46.805Z,-0.59
2018-11-22T21:30:32.493Z,-0.56
2018-11-22T21:32:18.959Z,-0.58
2018-11-22T21:33:59.169Z,-0.59
2018-11-22T21:35:36.563Z,-0.59
2018-11-22T21:37:14.876Z,-0.60
2018-11-22T21:38:53.761Z,-0.54
2018-11-22T21:40:35.961Z,-0.58
2018-11-22T21:42:10.955Z,-0.58
2018-11-22T21:43:45.978Z,-0.62
2018-11-22T21:45:21.306Z,-0.59
2018-11-22T21:46:58.176Z,-0.56
2018-11-22T21:48:34.881Z,-0.57
2018-11-22T21:50:09.479Z,-0.59
2018-11-22T21:51:44.705Z,-0.62
2018-11-22T21:53:19.533Z,-0.59
2018-11-22T21:54:54.040Z,-0.59
2018-11-22T21:56:29.686Z,-0.62
2018-11-22T21:58:06.043Z,-0.59
2018-11-22T21:59:42.460Z,-0.59
2018-11-22T22:01:16.559Z,-0.60
2018-11-22T22:02:52.968Z,-0.59
2018-11-22T22:04:27.644Z,-0.61
2018-11-22T22:06:01.494Z,-0.58
2018-11-22T22:07:35.332Z,-0.57
2018-11-22T22:09:14.229Z,-0.59
2018-11-22T22:10:51.822Z,-0.62
2018-11-22T22:12:30.765Z,-0.61
2018-11-22T22:14:11.364Z,-0.62
2018-11-22T22:15:45.707Z,-0.65
2018-11-22T22:17:23.465Z,-0.65
2018-11-22T22:19:01.014Z,-0.67
2018-11-22T22:20:46.164Z,-0.72
2018-11-22T22:22:26.366Z,-0.72
2018-11-22T22:24:04.057Z,-0.74
2018-11-22T22:25:39.312Z,-0.76
2018-11-22T22:27:13.383Z,-0.79
2018-11-22T22:28:47.693Z,-0.81
2018-11-22T22:30:27.264Z,-0.82
2018-11-22T22:32:01.662Z,-0.83
2018-11-22T22:33:36.776Z,-0.84
2018-11-22T22:35:12.769Z,-0.83
2018-11-22T22:36:47.482Z,-0.84
2018-11-22T22:38:22.376Z,-0.87
2018-11-22T22:40:03.521Z,-0.90
2018-11-22T22:41:32.071Z,-0.83
2018-11-22T22:43:10.813Z,-0.81
2018-11-22T22:44:47.412Z,-0.79
2018-11-22T22:46:26.125Z,-0.78
2018-11-22T22:48:03.916Z,-0.82
2018-11-22T22:49:39.096Z,-0.81
2018-11-22T22:51:21.893Z,-0.76
2018-11-22T22:52:59.585Z,-0.77
2018-11-22T22:54:40.276Z,-0.77
2018-11-22T22:56:16.742Z,-0.75
2018-11-22T22:57:54.976Z,-0.77
2018-11-22T22:59:29.475Z,-0.81
2018-11-22T23:01:06.474Z,-0.85
2018-11-22T23:02:47.342Z,-0.88
2018-11-22T23:04:25.202Z,-0.91
2018-11-22T23:06:00.357Z,-0.94
2018-11-22T23:07:37.355Z,-0.97
2018-11-22T23:09:13.933Z,-0.97
2018-11-22T23:10:48.255Z,-0.96
2018-11-22T23:12:22.174Z,-0.98
2018-11-22T23:13:56.917Z,-0.93
2018-11-22T23:15:32.074Z,-0.92
2018-11-22T23:17:09.448Z,-0.97
2018-11-22T23:18:44.533Z,-1.02
2018-11-22T23:20:21.330Z,-1.05
2018-11-22T23:21:55.040Z,-1.04
2018-11-22T23:23:29.223Z,-1.03
2018-11-22T23:25:04.917Z,-1.03
2018-11-22T23:26:41.555Z,-1.05
2018-11-22T23:28:16.295Z,-1.07
2018-11-22T23:29:50.924Z,-1.07
2018-11-22T23:31:26.463Z,-1.07
2018-11-22T23:33:03.664Z,-1.09
2018-11-22T23:34:43.008Z,-1.04
2018-11-22T23:36:17.080Z,-1.02
2018-11-22T23:37:51.015Z,-1.02
2018-11-22T23:39:25.108Z,-1.02
2018-11-22T23:40:59.093Z,-1.06
2018-11-22T23:42:33.614Z,-1.00
2018-11-22T23:44:08.024Z,-1.04
2018-11-22T23:45:43.089Z,-1.02
2018-11-22T23:47:17.168Z,-1.05
2018-11-22T23:48:53.164Z,-1.08
2018-11-22T23:50:28.694Z,-1.00
2018-11-22T23:52:02.581Z,-1.00
2018-11-22T23:53:36.874Z,-1.04
2018-11-22T23:55:10.931Z,-1.04
2018-11-22T23:56:45.238Z,-1.01
2018-11-22T23:58:19.448Z,-1.08
2018-11-22T23:59:54.212Z,-1.10
